Sea Success — VRS4325 — position and weather

sailwx.info

Track history (hours):
 
Tides and Currents Weather Stations Pressure Air Temp Water Temp Dewpoint Dewpoint Depression Visibility Wind Speed Wind Dir Waves Ship Positions

Sea Success

Last reported at 2016-May-06 01:13 UTC. Time now 2016-May-06 01:44 UTC.
Position N 22°17' E 114°05'.

Length 27 m.

Type: High speed craft. MMSI: 477995071.

Date/timePositionNaut miles runAvg speedWind from/ knotsBaromVisibWave heightAir tempDewpointWater temp
2016-May-06 01:13N 22°17' E 114°05'4 2.4
2016-May-05 23:34N 22°17' E 114°10'5 3.9
2016-May-05 22:21N 22°17' E 114°05'1 0.2
2016-May-05 13:28N 22°17' E 114°06'3 1.7
2016-May-05 11:33N 22°17' E 114°10'3 2.5
2016-May-05 10:16N 22°17' E 114°06'3 4.6
2016-May-05 09:34N 22°17' E 114°10'1 0.8
2016-May-05 08:33N 22°18' E 114°09'1 0.2
2016-May-05 05:33N 22°17' E 114°10'0 0.0
2016-May-05 02:33N 22°17' E 114°10'7 6.1
2016-May-05 01:22N 22°16' E 114°02'7 4.1
2016-May-04 23:34N 22°17' E 114°10'3 2.8
2016-May-04 22:27N 22°17' E 114°06'1 0.1
2016-May-04 13:33N 22°17' E 114°05'4 2.1
2016-May-04 11:33N 22°17' E 114°10'4 3.0
2016-May-04 10:18N 22°17' E 114°06'3 4.6
2016-May-04 09:33N 22°18' E 114°09'0 0.4
2016-May-04 08:33N 22°18' E 114°09'1 0.2
2016-May-04 05:33N 22°17' E 114°10'0 0.0
2016-May-04 02:33N 22°17' E 114°10'3 2.5
2016-May-04 01:11N 22°17' E 114°06'3 3.4
2016-May-04 00:12N 22°17' E 114°02'710.7
2016-May-03 23:33N 22°17' E 114°10'7 6.0
2016-May-03 22:24N 22°17' E 114°02'2 0.2
2016-May-03 13:32N 22°17' E 114°04'3 1.9
2016-May-03 12:04N 22°16' E 114°02'814.7
2016-May-03 11:33N 22°17' E 114°10'7 5.8
2016-May-03 10:23N 22°17' E 114°02'7 8.5
2016-May-03 09:33N 22°17' E 114°10'1 0.9
2016-May-03 08:33N 22°18' E 114°09'1 0.3
2016-May-03 05:33N 22°17' E 114°10'0 0.0
2016-May-03 02:34N 22°17' E 114°10'4 2.6
2016-May-03 01:09N 22°17' E 114°06'1 1.2
2016-May-03 00:04N 22°17' E 114°04'4 8.6
2016-May-02 23:33N 22°18' E 114°09'3 2.5
2016-May-02 22:26N 22°17' E 114°06'2 0.2
2016-May-02 14:04N 22°17' E 114°04'2 3.9
2016-May-02 13:32N 22°17' E 114°06'0 0.3
2016-May-02 12:33N 22°17' E 114°07'3 1.4
2016-May-02 10:33N 22°17' E 114°10'4 2.8
2016-May-02 09:17N 22°17' E 114°06'4 5.3
2016-May-02 08:33N 22°17' E 114°10'4 4.0
2016-May-02 07:31N 22°17' E 114°05'4 3.8
2016-May-02 06:33N 22°17' E 114°09'0 0.0
2016-May-02 05:33N 22°17' E 114°09'4 2.9
2016-May-02 04:18N 22°17' E 114°05'3 3.8
2016-May-02 03:33N 22°18' E 114°08'2 1.8
2016-May-02 02:33N 22°17' E 114°07'3 2.8
2016-May-02 01:33N 22°18' E 114°09'0 0.0
2016-May-02 00:33N 22°18' E 114°09'1 1.0
2016-May-01 23:33N 22°19' E 114°09'1 1.0
2016-May-01 22:33N 22°18' E 114°09'0 0.0
2016-May-01 21:33N 22°18' E 114°09'0 0.0
2016-May-01 20:33N 22°18' E 114°09'0 0.0
2016-May-01 19:33N 22°18' E 114°09'0 0.0
2016-May-01 18:33N 22°18' E 114°09'0 0.0
2016-May-01 17:33N 22°18' E 114°09'0 0.0
2016-May-01 16:33N 22°18' E 114°09'0 0.0
2016-May-01 15:33N 22°18' E 114°09'1 0.5
2016-May-01 13:34N 22°18' E 114°08'2 1.5
2016-May-01 12:32N 22°17' E 114°07'3 1.3
2016-May-01 10:33N 22°17' E 114°10'4 3.2
2016-May-01 09:17N 22°17' E 114°05'2 2.8
2016-May-01 08:34N 22°17' E 114°07'1 0.8
2016-May-01 07:30N 22°17' E 114°07'0 0.2
2016-May-01 06:17N 22°17' E 114°07'3 3.7
2016-May-01 05:33N 22°17' E 114°10'4 3.5
2016-May-01 04:20N 22°17' E 114°05'3 4.5
2016-May-01 03:33N 22°18' E 114°09'2 1.9
2016-May-01 02:33N 22°17' E 114°07'2 2.3
2016-May-01 01:33N 22°17' E 114°09'0 0.0
2016-May-01 00:33N 22°17' E 114°09'1 0.9
2016-Apr-30 23:33N 22°18' E 114°09'0 0.0
2016-Apr-30 01:18N 22°18' E 114°09'0 0.0
2016-Apr-28 08:33N 22°18' E 114°09'0 0.0
2016-Apr-28 07:33N 22°18' E 114°09'0 0.0
2016-Apr-28 06:33N 22°18' E 114°09'0 0.0
2016-Apr-28 05:33N 22°18' E 114°09'0 0.0
2016-Apr-28 04:33N 22°18' E 114°09'0 0.0
2016-Apr-28 03:33N 22°18' E 114°09'  
Track history (hours):
 
Tides and Currents Weather Stations Pressure Air Temp Water Temp Dewpoint Dewpoint Depression Visibility Wind Speed Wind Dir Waves Ship Positions

Sea Success

Last reported at 2016-May-06 01:13 UTC. Time now 2016-May-06 01:44 UTC.
Position N 22°17' E 114°05'.

Length 27 m.

Type: High speed craft. MMSI: 477995071.

Date/timePositionNaut miles runAvg speedWind from/ knotsBaromVisibWave heightAir tempDewpointWater temp
2016-May-06 01:13N 22°17' E 114°05'4 2.4
2016-May-05 23:34N 22°17' E 114°10'5 3.9
2016-May-05 22:21N 22°17' E 114°05'1 0.2
2016-May-05 13:28N 22°17' E 114°06'3 1.7
2016-May-05 11:33N 22°17' E 114°10'3 2.5
2016-May-05 10:16N 22°17' E 114°06'3 4.6
2016-May-05 09:34N 22°17' E 114°10'1 0.8
2016-May-05 08:33N 22°18' E 114°09'1 0.2
2016-May-05 05:33N 22°17' E 114°10'0 0.0
2016-May-05 02:33N 22°17' E 114°10'7 6.1
2016-May-05 01:22N 22°16' E 114°02'7 4.1
2016-May-04 23:34N 22°17' E 114°10'3 2.8
2016-May-04 22:27N 22°17' E 114°06'1 0.1
2016-May-04 13:33N 22°17' E 114°05'4 2.1
2016-May-04 11:33N 22°17' E 114°10'4 3.0
2016-May-04 10:18N 22°17' E 114°06'3 4.6
2016-May-04 09:33N 22°18' E 114°09'0 0.4
2016-May-04 08:33N 22°18' E 114°09'1 0.2
2016-May-04 05:33N 22°17' E 114°10'0 0.0
2016-May-04 02:33N 22°17' E 114°10'3 2.5
2016-May-04 01:11N 22°17' E 114°06'3 3.4
2016-May-04 00:12N 22°17' E 114°02'710.7
2016-May-03 23:33N 22°17' E 114°10'7 6.0
2016-May-03 22:24N 22°17' E 114°02'2 0.2
2016-May-03 13:32N 22°17' E 114°04'3 1.9
2016-May-03 12:04N 22°16' E 114°02'814.7
2016-May-03 11:33N 22°17' E 114°10'7 5.8
2016-May-03 10:23N 22°17' E 114°02'7 8.5
2016-May-03 09:33N 22°17' E 114°10'1 0.9
2016-May-03 08:33N 22°18' E 114°09'1 0.3
2016-May-03 05:33N 22°17' E 114°10'0 0.0
2016-May-03 02:34N 22°17' E 114°10'4 2.6
2016-May-03 01:09N 22°17' E 114°06'1 1.2
2016-May-03 00:04N 22°17' E 114°04'4 8.6
2016-May-02 23:33N 22°18' E 114°09'3 2.5
2016-May-02 22:26N 22°17' E 114°06'2 0.2
2016-May-02 14:04N 22°17' E 114°04'2 3.9
2016-May-02 13:32N 22°17' E 114°06'0 0.3
2016-May-02 12:33N 22°17' E 114°07'3 1.4
2016-May-02 10:33N 22°17' E 114°10'4 2.8
2016-May-02 09:17N 22°17' E 114°06'4 5.3
2016-May-02 08:33N 22°17' E 114°10'4 4.0
2016-May-02 07:31N 22°17' E 114°05'4 3.8
2016-May-02 06:33N 22°17' E 114°09'0 0.0
2016-May-02 05:33N 22°17' E 114°09'4 2.9
2016-May-02 04:18N 22°17' E 114°05'3 3.8
2016-May-02 03:33N 22°18' E 114°08'2 1.8
2016-May-02 02:33N 22°17' E 114°07'3 2.8
2016-May-02 01:33N 22°18' E 114°09'0 0.0
2016-May-02 00:33N 22°18' E 114°09'1 1.0
2016-May-01 23:33N 22°19' E 114°09'1 1.0
2016-May-01 22:33N 22°18' E 114°09'0 0.0
2016-May-01 21:33N 22°18' E 114°09'0 0.0
2016-May-01 20:33N 22°18' E 114°09'0 0.0
2016-May-01 19:33N 22°18' E 114°09'0 0.0
2016-May-01 18:33N 22°18' E 114°09'0 0.0
2016-May-01 17:33N 22°18' E 114°09'0 0.0
2016-May-01 16:33N 22°18' E 114°09'0 0.0
2016-May-01 15:33N 22°18' E 114°09'1 0.5
2016-May-01 13:34N 22°18' E 114°08'2 1.5
2016-May-01 12:32N 22°17' E 114°07'3 1.3
2016-May-01 10:33N 22°17' E 114°10'4 3.2
2016-May-01 09:17N 22°17' E 114°05'2 2.8
2016-May-01 08:34N 22°17' E 114°07'1 0.8
2016-May-01 07:30N 22°17' E 114°07'0 0.2
2016-May-01 06:17N 22°17' E 114°07'3 3.7
2016-May-01 05:33N 22°17' E 114°10'4 3.5
2016-May-01 04:20N 22°17' E 114°05'3 4.5
2016-May-01 03:33N 22°18' E 114°09'2 1.9
2016-May-01 02:33N 22°17' E 114°07'2 2.3
2016-May-01 01:33N 22°17' E 114°09'0 0.0
2016-May-01 00:33N 22°17' E 114°09'1 0.9
2016-Apr-30 23:33N 22°18' E 114°09'0 0.0
2016-Apr-30 01:18N 22°18' E 114°09'0 0.0
2016-Apr-28 08:33N 22°18' E 114°09'0 0.0
2016-Apr-28 07:33N 22°18' E 114°09'0 0.0
2016-Apr-28 06:33N 22°18' E 114°09'0 0.0
2016-Apr-28 05:33N 22°18' E 114°09'0 0.0
2016-Apr-28 04:33N 22°18' E 114°09'0 0.0
2016-Apr-28 03:33N 22°18' E 114°09'  

Dump ship's entire track history